メインページ
METAR-TAF:

METAR-TAF

空港 :

ハマド国際空港

ドーハ, カタール

緯度: 25-16-23N, 経度: 51-36-29E, 海抜: 4m

現時点の気象観測

当レポートは1時間3分前の20:00(UTC)に作成
の風 7kt
気温 32°C
湿度 75%
気圧 996 hPa
視程10km以上
1,500メートル以下は雲なし、積乱雲なし

METAR: OTHH 212000Z 35007KT CAVOK 32/27 Q0996 NOSIG

時間: 00:03 (21:03 UTC)

予報

当レポートは3時間58分前の17:05(UTC)に作成
予報は21日の 18時(UTC)から 22日の 24時(UTC)まで有効
の風 10kt
視程: 9000m
21日の 23時(UTC)から 22日の 01時(UTC)まで徐々に
西/北西の風 10kt
22日の 05時(UTC)から 22日の 17時(UTC)まで一時的に
の風 15kt、最大30ktの突風を伴う
確率 30% :
22日の 07時(UTC)から 22日の 15時(UTC)まで一時的に
視程: 5000m
風塵

TAF: OTHH 211705Z 2118/2224 01010KT 9000 NSC BECMG 2123/2201 30010KT TEMPO 2205/2217 36015G30KT PROB30 TEMPO 2207/2215 5000 BLDU

4,000以上の空港の気象観測と天気予報(METAR報とTAF報)

利用可能な観測所は地図上に黄色い丸と赤い丸で示す。

丸の上にカーソルを重ねると観測所名を参照できる。

次にクリックすると気象観測と天気予報を参照できる。

マップの切り替え:黒色「×」印の緑ボタンをクリックして拡大、「-」印の緑ボタンをクリックして縮小、緑色の三角印をクリックして隣りの地図に切り替え


METAR-TAF: